createdAt,value
2019-01-12T00:04:11.964Z,9.39
2019-01-12T00:09:16.721Z,9.36
2019-01-12T00:14:19.444Z,9.07
2019-01-12T00:19:24.169Z,9.12
2019-01-12T00:24:31.663Z,9.20
2019-01-12T00:29:33.578Z,9.30
2019-01-12T00:34:38.370Z,9.26
2019-01-12T00:39:47.314Z,9.24
2019-01-12T00:44:49.997Z,9.43
2019-01-12T00:49:52.795Z,9.49
2019-01-12T00:54:57.564Z,9.44
2019-01-12T01:00:02.339Z,9.58
2019-01-12T01:05:07.755Z,9.47
2019-01-12T01:10:14.703Z,9.43
2019-01-12T01:15:18.237Z,9.55
2019-01-12T01:20:20.931Z,9.48
2019-01-12T01:25:25.763Z,9.40
2019-01-12T01:30:28.448Z,9.26
2019-01-12T01:35:35.133Z,9.31
2019-01-12T01:40:37.881Z,9.23
2019-01-12T01:45:40.699Z,9.17
2019-01-12T01:50:45.707Z,9.31
2019-01-12T01:55:48.355Z,9.45
2019-01-12T02:00:51.014Z,9.32
2019-01-12T02:05:59.899Z,9.29
2019-01-12T02:11:04.629Z,9.21
2019-01-12T02:16:13.406Z,9.21
2019-01-12T02:21:18.214Z,9.17
2019-01-12T02:26:24.851Z,9.10
2019-01-12T02:31:27.508Z,9.13
2019-01-12T02:36:32.235Z,9.14
2019-01-12T02:41:37.200Z,9.22
2019-01-12T02:46:41.954Z,9.18
2019-01-12T02:51:48.747Z,9.19
2019-01-12T02:56:54.061Z,9.12
2019-01-12T03:01:58.855Z,9.19
2019-01-12T03:07:07.819Z,9.21
2019-01-12T03:17:19.455Z,9.30
2019-01-12T03:22:24.340Z,9.29
2019-01-12T03:27:31.136Z,9.13
2019-01-12T03:32:35.782Z,9.10
2019-01-12T03:37:38.415Z,9.14
2019-01-12T03:42:41.115Z,9.12
2019-01-12T03:47:45.940Z,9.18
2019-01-12T03:52:48.742Z,9.16
2019-01-12T03:57:51.684Z,9.09
2019-01-12T04:02:56.551Z,8.99
2019-01-12T04:07:59.242Z,9.07
2019-01-12T04:13:03.899Z,9.07
2019-01-12T04:18:06.770Z,9.09
2019-01-12T04:23:11.713Z,9.10
2019-01-12T04:28:18.590Z,9.09
2019-01-12T04:33:21.320Z,9.11
2019-01-12T04:38:24.067Z,8.97
2019-01-12T04:43:28.796Z,8.98
2019-01-12T04:48:33.507Z,9.02
2019-01-12T04:53:40.140Z,9.06
2019-01-12T04:58:42.853Z,9.12
2019-01-12T05:03:45.588Z,9.18
2019-01-12T05:08:50.431Z,9.15
2019-01-12T05:13:55.289Z,9.19
2019-01-12T05:19:00.124Z,9.23
2019-01-12T05:24:04.824Z,9.25
2019-01-12T05:29:09.614Z,9.23
2019-01-12T05:34:12.363Z,9.22
2019-01-12T05:39:17.113Z,9.30
2019-01-12T05:44:19.773Z,9.40
2019-01-12T05:49:24.441Z,9.33
2019-01-12T05:54:29.321Z,9.28
2019-01-12T05:59:34.024Z,9.30
2019-01-12T06:04:36.650Z,9.37
2019-01-12T06:09:43.573Z,9.48
2019-01-12T06:14:48.366Z,9.44
2019-01-12T06:19:53.119Z,9.47
2019-01-12T06:24:58.453Z,9.51
2019-01-12T06:30:03.184Z,9.46
2019-01-12T06:35:06.248Z,9.52
2019-01-12T06:40:11.593Z,9.54
2019-01-12T06:45:16.904Z,9.47
2019-01-12T06:50:25.939Z,9.51
2019-01-12T06:55:30.670Z,9.54
2019-01-12T07:00:35.398Z,9.61
2019-01-12T07:05:38.019Z,9.64
2019-01-12T07:10:42.735Z,9.61
2019-01-12T07:15:45.408Z,9.53
2019-01-12T07:20:50.110Z,9.49
2019-01-12T07:25:58.863Z,9.48
2019-01-12T07:31:03.688Z,9.55
2019-01-12T07:36:08.438Z,9.57
2019-01-12T07:41:15.175Z,9.60
2019-01-12T07:46:17.953Z,9.55
2019-01-12T07:51:20.640Z,9.59
2019-01-12T07:56:24.582Z,9.57
2019-01-12T08:01:27.659Z,9.60
2019-01-12T08:06:30.478Z,9.70
2019-01-12T08:11:33.319Z,9.74
2019-01-12T08:16:37.993Z,9.73
2019-01-12T08:21:40.674Z,9.74
2019-01-12T08:26:43.374Z,9.71
2019-01-12T08:31:46.104Z,9.81
2019-01-12T08:36:48.701Z,9.76
2019-01-12T08:41:51.334Z,9.74
2019-01-12T08:46:56.005Z,9.78
2019-01-12T08:51:58.860Z,9.75
2019-01-12T08:57:01.697Z,9.76
2019-01-12T09:02:06.704Z,9.85
2019-01-12T09:07:11.544Z,9.90
2019-01-12T09:12:19.129Z,9.87
2019-01-12T09:17:21.924Z,9.79
2019-01-12T09:22:24.573Z,9.87
2019-01-12T09:27:29.354Z,9.85
2019-01-12T09:32:31.929Z,9.92
2019-01-12T09:37:36.593Z,9.97
2019-01-12T09:42:39.303Z,9.95
2019-01-12T09:47:44.194Z,9.98
2019-01-12T09:52:47.343Z,10.00
2019-01-12T09:57:50.539Z,10.07
2019-01-12T10:02:53.273Z,10.20
2019-01-12T10:07:56.060Z,10.29
2019-01-12T10:13:00.109Z,10.31
2019-01-12T10:18:03.061Z,10.28
2019-01-12T10:23:05.858Z,10.31
2019-01-12T10:28:08.561Z,10.33
2019-01-12T10:33:11.391Z,10.25
2019-01-12T10:38:14.300Z,10.15
2019-01-12T10:43:17.776Z,10.23
2019-01-12T10:48:20.503Z,10.25
2019-01-12T10:53:23.331Z,10.20
2019-01-12T10:58:26.292Z,10.30
2019-01-12T11:03:29.305Z,10.43
2019-01-12T11:08:32.175Z,10.61
2019-01-12T11:13:37.701Z,10.58
2019-01-12T11:18:40.596Z,10.57
2019-01-12T11:23:43.437Z,10.61
2019-01-12T11:28:46.332Z,10.52
2019-01-12T11:33:49.082Z,10.40
2019-01-12T11:38:51.811Z,10.42
2019-01-12T11:43:54.452Z,10.43
2019-01-12T11:48:57.322Z,10.45
2019-01-12T11:54:00.140Z,10.47
2019-01-12T11:59:02.939Z,10.53
2019-01-12T12:04:05.782Z,10.62
2019-01-12T12:09:08.916Z,10.63
2019-01-12T12:14:11.745Z,10.70
2019-01-12T12:19:14.462Z,10.67
2019-01-12T12:24:17.334Z,10.62
2019-01-12T12:29:20.174Z,10.67
2019-01-12T12:34:23.053Z,10.59
2019-01-12T12:39:25.705Z,10.66
2019-01-12T12:44:28.435Z,10.73
2019-01-12T12:49:31.209Z,10.73
2019-01-12T12:54:34.262Z,10.72
2019-01-12T12:59:37.091Z,10.63
2019-01-12T13:04:39.885Z,10.74
2019-01-12T13:09:42.691Z,10.88
2019-01-12T13:14:45.340Z,10.83
2019-01-12T13:19:48.052Z,10.73
2019-01-12T13:24:50.907Z,10.94
2019-01-12T13:29:53.546Z,10.65
2019-01-12T13:34:56.537Z,10.27
2019-01-12T13:39:59.302Z,10.22
2019-01-12T13:45:02.170Z,10.16
2019-01-12T13:50:07.183Z,10.00
2019-01-12T13:55:12.513Z,9.79
2019-01-12T14:00:19.513Z,9.74
2019-01-12T14:05:22.662Z,9.76
2019-01-12T14:10:26.214Z,9.91
2019-01-12T14:15:29.381Z,9.93
2019-01-12T14:20:35.391Z,9.99
2019-01-12T14:25:38.139Z,9.89
2019-01-12T14:30:41.139Z,9.85
2019-01-12T14:35:44.039Z,9.89
2019-01-12T14:40:46.931Z,9.79
2019-01-12T14:45:49.888Z,9.75
2019-01-12T14:50:53.762Z,9.72
2019-01-12T14:55:56.800Z,9.62
2019-01-12T15:00:59.532Z,9.59
2019-01-12T15:06:02.462Z,9.64
2019-01-12T15:11:05.400Z,9.65
2019-01-12T15:16:08.280Z,9.63
2019-01-12T15:21:11.081Z,9.64
2019-01-12T15:26:14.085Z,9.79
2019-01-12T15:31:16.958Z,9.79
2019-01-12T15:36:20.202Z,9.80
2019-01-12T15:41:23.042Z,9.85
2019-01-12T15:46:25.881Z,9.51
2019-01-12T15:51:28.740Z,9.59
2019-01-12T15:56:31.463Z,9.54
2019-01-12T16:01:34.340Z,9.47
2019-01-12T16:06:37.122Z,9.43
2019-01-12T16:11:39.961Z,9.42
2019-01-12T16:16:42.752Z,9.46
2019-01-12T16:21:45.684Z,9.32
2019-01-12T16:26:48.541Z,9.36
2019-01-12T16:31:51.543Z,9.59
2019-01-12T16:36:54.323Z,9.50
2019-01-12T16:41:57.027Z,9.55
2019-01-12T16:46:59.761Z,9.43
2019-01-12T16:52:02.834Z,9.43
2019-01-12T16:57:05.570Z,9.43
2019-01-12T17:02:08.324Z,9.41
2019-01-12T17:07:11.195Z,9.35
2019-01-12T17:12:14.049Z,9.36
2019-01-12T17:17:16.970Z,9.40
2019-01-12T17:22:19.928Z,9.44
2019-01-12T17:27:22.751Z,9.48
2019-01-12T17:32:25.751Z,9.50
2019-01-12T17:37:28.718Z,9.49
2019-01-12T17:42:31.788Z,9.46
2019-01-12T17:47:34.608Z,9.47
2019-01-12T17:52:38.763Z,9.54
2019-01-12T17:57:41.907Z,9.53
2019-01-12T18:02:44.849Z,9.63
2019-01-12T18:07:47.810Z,9.61
2019-01-12T18:12:50.610Z,9.49
2019-01-12T18:17:53.696Z,9.39
2019-01-12T18:22:56.649Z,9.38
2019-01-12T18:27:59.789Z,9.40
2019-01-12T18:33:02.812Z,9.34
2019-01-12T18:38:05.952Z,9.25
2019-01-12T18:43:08.929Z,9.20
2019-01-12T18:48:12.010Z,9.14
2019-01-12T18:53:14.987Z,9.15
2019-01-12T18:58:17.993Z,9.08
2019-01-12T19:03:20.854Z,9.05
2019-01-12T19:08:23.911Z,9.07
2019-01-12T19:13:26.710Z,9.08
2019-01-12T19:18:29.649Z,9.15
2019-01-12T19:23:32.592Z,9.04
2019-01-12T19:28:35.559Z,9.00
2019-01-12T19:33:38.457Z,8.98
2019-01-12T19:38:41.416Z,8.97
2019-01-12T19:43:45.111Z,8.99
2019-01-12T19:48:47.908Z,9.06
2019-01-12T19:53:50.986Z,9.11
2019-01-12T19:58:53.736Z,9.07
2019-01-12T20:03:56.596Z,9.03
2019-01-12T20:08:59.346Z,9.10
2019-01-12T20:14:02.234Z,9.12
2019-01-12T20:19:05.383Z,9.18
2019-01-12T20:24:08.223Z,9.36
2019-01-12T20:29:11.211Z,9.35
2019-01-12T20:34:22.427Z,9.44
2019-01-12T20:39:35.631Z,9.52
2019-01-12T20:44:56.354Z,9.65
2019-01-12T20:50:10.581Z,9.68
2019-01-12T20:55:37.063Z,9.75
2019-01-12T21:00:54.546Z,9.91
2019-01-12T21:06:08.273Z,9.83
2019-01-12T21:11:30.848Z,9.81
2019-01-12T21:16:38.674Z,9.68
2019-01-12T21:21:41.594Z,9.68
2019-01-12T21:26:44.385Z,9.76
2019-01-12T21:31:47.088Z,9.96
2019-01-12T21:36:49.928Z,10.07
2019-01-12T21:41:52.876Z,10.18
2019-01-12T21:46:55.880Z,10.19
2019-01-12T21:51:58.926Z,10.19
2019-01-12T21:57:01.923Z,10.21
2019-01-12T22:02:05.089Z,10.19
2019-01-12T22:07:08.008Z,10.13
2019-01-12T22:12:10.848Z,10.14
2019-01-12T22:17:13.680Z,10.10
2019-01-12T22:22:16.538Z,10.00
2019-01-12T22:27:19.474Z,9.88
2019-01-12T22:32:22.319Z,9.92
2019-01-12T22:37:25.163Z,9.97
2019-01-12T22:42:27.902Z,9.97
2019-01-12T22:47:30.657Z,10.01
2019-01-12T22:52:33.391Z,9.96
2019-01-12T22:57:36.258Z,9.85
2019-01-12T23:02:39.051Z,9.67
2019-01-12T23:07:42.079Z,9.74
2019-01-12T23:12:45.098Z,9.79
2019-01-12T23:17:48.053Z,9.66
2019-01-12T23:22:50.792Z,9.72
2019-01-12T23:27:53.568Z,9.78
2019-01-12T23:32:56.445Z,9.70
2019-01-12T23:37:59.160Z,9.74
2019-01-12T23:43:01.993Z,9.59
2019-01-12T23:48:05.117Z,9.62
2019-01-12T23:53:08.015Z,9.75
2019-01-12T23:58:11.895Z,9.90
